Time,TemperatureF,DewpointF,PressureIn,WindDirection,WindDirectionDegrees,WindSpeedMPH,WindSpeedGustMPH,Humidity,HourlyPrecipIn,Conditions,Clouds,dailyrainin,SoftwareType,DateUTC
2013-01-07 00:10:00,30.4,28.9,30.15,ESE,112,0.0,-999.0,94,-99.99,,,0.00,Acu-Link.com,2013-01-07 05:10:00,
2013-01-07 00:25:00,30.0,28.2,30.14,NNW,337,0.0,-999.0,93,-99.99,,,0.00,Acu-Link.com,2013-01-07 05:25:00,
2013-01-07 00:41:00,29.3,28.3,30.15,West,270,0.0,-999.0,96,-99.99,,,0.00,Acu-Link.com,2013-01-07 05:41:00,
2013-01-07 00:56:00,28.8,28.3,30.16,SW,225,0.0,-999.0,98,-99.99,,,0.00,Acu-Link.com,2013-01-07 05:56:00,
2013-01-07 01:11:00,28.6,28.1,30.17,NW,315,0.0,-999.0,98,-99.99,,,0.00,Acu-Link.com,2013-01-07 06:11:00,
2013-01-07 01:26:00,28.4,27.4,30.17,WNW,292,0.0,-999.0,96,-99.99,,,0.00,Acu-Link.com,2013-01-07 06:26:00,
2013-01-07 01:41:00,28.8,27.5,30.17,West,270,0.0,-999.0,95,-99.99,,,0.00,Acu-Link.com,2013-01-07 06:41:00,
2013-01-07 01:57:00,28.8,27.8,30.19,South,180,0.0,-999.0,96,-99.99,,,0.00,Acu-Link.com,2013-01-07 06:57:00,
2013-01-07 02:12:00,28.8,28.0,30.19,ESE,112,0.0,-999.0,97,-99.99,,,0.00,Acu-Link.com,2013-01-07 07:12:00,
2013-01-07 02:27:00,28.6,27.8,30.19,SSE,157,0.0,-999.0,97,-99.99,,,0.00,Acu-Link.com,2013-01-07 07:27:00,
2013-01-07 02:42:00,28.6,27.8,30.19,South,180,0.0,-999.0,97,-99.99,,,0.00,Acu-Link.com,2013-01-07 07:42:00,
2013-01-07 02:57:00,28.8,28.3,30.20,WNW,292,0.0,-999.0,98,-99.99,,,0.00,Acu-Link.com,2013-01-07 07:57:00,
2013-01-07 03:13:00,28.8,28.0,30.20,SSW,202,0.0,-999.0,97,-99.99,,,0.00,Acu-Link.com,2013-01-07 08:13:00,
2013-01-07 03:28:00,28.8,28.3,30.19,ESE,112,0.0,-999.0,98,-99.99,,,0.00,Acu-Link.com,2013-01-07 08:28:00,
2013-01-07 03:43:00,28.8,28.3,30.20,SSE,157,0.0,-999.0,98,-99.99,,,0.00,Acu-Link.com,2013-01-07 08:43:00,
2013-01-07 03:58:00,28.6,28.1,30.20,NNW,337,0.0,-999.0,98,-99.99,,,0.00,Acu-Link.com,2013-01-07 08:58:00,
2013-01-07 04:13:00,28.6,28.1,30.20,WNW,292,0.0,-999.0,98,-99.99,,,0.00,Acu-Link.com,2013-01-07 09:13:00,
2013-01-07 04:29:00,28.4,27.9,30.21,WNW,292,0.0,-999.0,98,-99.99,,,0.00,Acu-Link.com,2013-01-07 09:29:00,
2013-01-07 04:44:00,28.4,27.9,30.22,NNW,337,0.0,-999.0,98,-99.99,,,0.00,Acu-Link.com,2013-01-07 09:44:00,
2013-01-07 04:59:00,28.4,27.2,30.22,SE,135,0.0,-999.0,95,-99.99,,,0.00,Acu-Link.com,2013-01-07 09:59:00,
2013-01-07 05:14:00,27.9,26.6,30.21,NW,315,0.0,-999.0,95,-99.99,,,0.00,Acu-Link.com,2013-01-07 10:14:00,
2013-01-07 05:30:00,27.3,26.3,30.22,South,180,0.0,-999.0,96,-99.99,,,0.00,Acu-Link.com,2013-01-07 10:30:00,
2013-01-07 05:45:00,26.8,25.8,30.22,SW,225,0.0,-999.0,96,-99.99,,,0.00,Acu-Link.com,2013-01-07 10:45:00,
2013-01-07 06:00:00,26.8,25.8,30.22,South,180,0.0,-999.0,96,-99.99,,,0.00,Acu-Link.com,2013-01-07 11:00:00,
2013-01-07 06:15:00,26.8,26.0,30.22,SW,225,0.0,-999.0,97,-99.99,,,0.00,Acu-Link.com,2013-01-07 11:15:00,
2013-01-07 06:30:00,26.8,26.0,30.23,ESE,112,0.0,-999.0,97,-99.99,,,0.00,Acu-Link.com,2013-01-07 11:30:00,
2013-01-07 06:46:00,26.8,25.5,30.23,South,180,0.0,-999.0,95,-99.99,,,0.00,Acu-Link.com,2013-01-07 11:46:00,
2013-01-07 07:01:00,26.4,25.4,30.23,SSE,157,0.0,-999.0,96,-99.99,,,0.00,Acu-Link.com,2013-01-07 12:01:00,
2013-01-07 07:16:00,25.9,25.4,30.23,WNW,292,0.0,-999.0,98,-99.99,,,0.00,Acu-Link.com,2013-01-07 12:16:00,
2013-01-07 07:31:00,24.6,24.1,30.23,SE,135,0.0,-999.0,98,-99.99,,,0.00,Acu-Link.com,2013-01-07 12:31:00,
2013-01-07 07:46:00,23.4,22.9,30.23,West,270,0.0,-999.0,98,-99.99,,,0.00,Acu-Link.com,2013-01-07 12:46:00,
2013-01-07 08:02:00,23.0,22.5,30.24,NW,315,0.0,-999.0,98,-99.99,,,0.00,Acu-Link.com,2013-01-07 13:02:00,
2013-01-07 08:17:00,22.8,22.3,30.24,WSW,247,0.0,-999.0,98,-99.99,,,0.00,Acu-Link.com,2013-01-07 13:17:00,
2013-01-07 08:32:00,23.7,23.2,30.25,WNW,292,0.0,-999.0,98,-99.99,,,0.00,Acu-Link.com,2013-01-07 13:32:00,
2013-01-07 08:47:00,25.2,24.7,30.25,NW,315,0.0,-999.0,98,-99.99,,,0.00,Acu-Link.com,2013-01-07 13:47:00,
2013-01-07 09:02:00,27.3,26.6,30.25,SW,225,0.0,-999.0,97,-99.99,,,0.00,Acu-Link.com,2013-01-07 14:02:00,
2013-01-07 09:18:00,30.9,28.3,30.25,SSW,202,0.0,-999.0,90,-99.99,,,0.00,Acu-Link.com,2013-01-07 14:18:00,
2013-01-07 09:33:00,33.4,30.0,30.26,ESE,112,0.0,-999.0,87,-99.99,,,0.00,Acu-Link.com,2013-01-07 14:33:00,
2013-01-07 09:48:00,35.6,30.7,30.26,SW,225,1.1,-999.0,82,-99.99,,,0.00,Acu-Link.com,2013-01-07 14:48:00,
2013-01-07 10:03:00,36.1,30.9,30.26,WSW,247,2.7,-999.0,81,-99.99,,,0.00,Acu-Link.com,2013-01-07 15:03:00,
2013-01-07 10:18:00,36.0,30.4,30.25,SSW,202,1.6,-999.0,80,-99.99,,,0.00,Acu-Link.com,2013-01-07 15:18:00,
2013-01-07 10:34:00,36.5,30.3,30.25,SSW,202,4.3,-999.0,78,-99.99,,,0.00,Acu-Link.com,2013-01-07 15:34:00,
2013-01-07 10:49:00,36.0,29.8,30.24,SSW,202,5.1,-999.0,78,-99.99,,,0.00,Acu-Link.com,2013-01-07 15:49:00,
2013-01-07 11:04:00,38.7,32.1,30.24,SW,225,3.1,-999.0,77,-99.99,,,0.00,Acu-Link.com,2013-01-07 16:04:00,
2013-01-07 11:19:00,38.8,31.3,30.23,South,180,4.3,-999.0,74,-99.99,,,0.00,Acu-Link.com,2013-01-07 16:19:00,
2013-01-07 11:35:00,40.5,32.2,30.23,SW,225,3.1,-999.0,72,-99.99,,,0.00,Acu-Link.com,2013-01-07 16:35:00,
2013-01-07 11:50:00,40.8,31.8,30.22,SSE,157,5.8,-999.0,70,-99.99,,,0.00,Acu-Link.com,2013-01-07 16:50:00,
2013-01-07 12:05:00,41.4,31.6,30.21,South,180,4.7,-999.0,68,-99.99,,,0.00,Acu-Link.com,2013-01-07 17:05:00,
2013-01-07 12:20:00,42.8,32.2,30.19,SW,225,3.1,-999.0,66,-99.99,,,0.00,Acu-Link.com,2013-01-07 17:20:00,
2013-01-07 12:35:00,44.2,32.8,30.19,West,270,2.7,-999.0,64,-99.99,,,0.00,Acu-Link.com,2013-01-07 17:35:00,
2013-01-07 12:51:00,43.5,32.2,30.17,SW,225,2.2,-999.0,64,-99.99,,,0.00,Acu-Link.com,2013-01-07 17:51:00,
2013-01-07 13:06:00,43.2,31.8,30.17,SSE,157,3.1,-999.0,64,-99.99,,,0.01,Acu-Link.com,2013-01-07 18:06:00,
2013-01-07 13:21:00,44.4,32.6,30.16,SW,225,5.1,-999.0,63,-99.99,,,0.01,Acu-Link.com,2013-01-07 18:21:00,
2013-01-07 13:36:00,39.7,30.4,30.15,South,180,3.8,-999.0,69,-99.99,,,0.01,Acu-Link.com,2013-01-07 18:36:00,
2013-01-07 13:52:00,40.1,31.1,30.14,SSW,202,3.8,-999.0,70,-99.99,,,0.01,Acu-Link.com,2013-01-07 18:52:00,
2013-01-07 14:07:00,39.7,30.8,30.12,SSE,157,3.8,-999.0,70,-99.99,,,0.01,Acu-Link.com,2013-01-07 19:07:00,
2013-01-07 14:22:00,39.9,31.3,30.11,South,180,10.3,-999.0,71,-99.99,,,0.01,Acu-Link.com,2013-01-07 19:22:00,
2013-01-07 14:37:00,38.8,30.6,30.11,East,90,2.2,-999.0,72,-99.99,,,0.01,Acu-Link.com,2013-01-07 19:37:00,
2013-01-07 14:52:00,37.0,29.9,30.11,SSW,202,7.4,-999.0,75,-99.99,,,0.02,Acu-Link.com,2013-01-07 19:52:00,
2013-01-07 15:08:00,37.0,30.2,30.10,SSE,157,7.4,-999.0,76,-99.99,,,0.02,Acu-Link.com,2013-01-07 20:08:00,
2013-01-07 15:23:00,36.7,30.2,30.11,ESE,112,0.0,-999.0,77,-99.99,,,0.02,Acu-Link.com,2013-01-07 20:23:00,
2013-01-07 15:38:00,35.1,29.2,30.10,SSE,157,3.8,-999.0,79,-99.99,,,0.02,Acu-Link.com,2013-01-07 20:38:00,
2013-01-07 15:53:00,34.2,29.0,30.10,SSW,202,5.8,-999.0,81,-99.99,,,0.02,Acu-Link.com,2013-01-07 20:53:00,
2013-01-07 16:08:00,33.1,28.5,30.10,SE,135,9.4,-999.0,83,-99.99,,,0.02,Acu-Link.com,2013-01-07 21:08:00,
2013-01-07 16:24:00,32.2,28.2,30.11,SW,225,1.6,-999.0,85,-99.99,,,0.02,Acu-Link.com,2013-01-07 21:24:00,
2013-01-07 16:39:00,31.5,28.0,30.10,South,180,2.2,-999.0,87,-99.99,,,0.02,Acu-Link.com,2013-01-07 21:39:00,
2013-01-07 16:54:00,30.6,27.4,30.10,SSW,202,3.1,-999.0,88,-99.99,,,0.02,Acu-Link.com,2013-01-07 21:54:00,
2013-01-07 17:09:00,30.0,27.4,30.10,South,180,3.8,-999.0,90,-99.99,,,0.02,Acu-Link.com,2013-01-07 22:09:00,
2013-01-07 17:25:00,29.1,27.1,30.10,South,180,0.0,-999.0,92,-99.99,,,0.02,Acu-Link.com,2013-01-07 22:25:00,
2013-01-07 17:40:00,28.8,26.7,30.10,ESE,112,0.0,-999.0,92,-99.99,,,0.02,Acu-Link.com,2013-01-07 22:40:00,
2013-01-07 17:55:00,28.9,27.2,30.09,SW,225,1.1,-999.0,93,-99.99,,,0.02,Acu-Link.com,2013-01-07 22:55:00,
2013-01-07 18:10:00,28.4,26.6,30.09,SSE,157,5.1,-999.0,93,-99.99,,,0.02,Acu-Link.com,2013-01-07 23:10:00,
2013-01-07 18:25:00,27.5,26.3,30.09,SSE,157,0.0,-999.0,95,-99.99,,,0.02,Acu-Link.com,2013-01-07 23:25:00,
2013-01-07 18:41:00,27.1,26.4,30.09,South,180,0.0,-999.0,97,-99.99,,,0.02,Acu-Link.com,2013-01-07 23:41:00,
2013-01-07 18:56:00,27.0,26.5,30.08,South,180,0.0,-999.0,98,-99.99,,,0.02,Acu-Link.com,2013-01-07 23:56:00,
2013-01-07 19:11:00,26.6,26.1,30.08,WNW,292,0.0,-999.0,98,-99.99,,,0.02,Acu-Link.com,2013-01-08 00:11:00,
2013-01-07 19:26:00,27.1,26.7,30.07,South,180,0.0,-999.0,98,-99.99,,,0.02,Acu-Link.com,2013-01-08 00:26:00,
2013-01-07 19:41:00,27.1,26.4,30.06,NE,45,2.2,-999.0,97,-99.99,,,0.02,Acu-Link.com,2013-01-08 00:41:00,
2013-01-07 19:57:00,26.8,26.0,30.07,ENE,67,0.0,-999.0,97,-99.99,,,0.02,Acu-Link.com,2013-01-08 00:57:00,
2013-01-07 20:12:00,26.6,26.1,30.07,West,270,1.1,-999.0,98,-99.99,,,0.02,Acu-Link.com,2013-01-08 01:12:00,
2013-01-07 20:27:00,26.8,26.3,30.06,South,180,0.0,-999.0,98,-99.99,,,0.02,Acu-Link.com,2013-01-08 01:27:00,
2013-01-07 20:42:00,27.7,26.7,30.06,SE,135,7.4,-999.0,96,-99.99,,,0.02,Acu-Link.com,2013-01-08 01:42:00,
2013-01-07 20:57:00,28.0,26.5,30.04,ESE,112,5.1,-999.0,94,-99.99,,,0.02,Acu-Link.com,2013-01-08 01:57:00,
2013-01-07 21:13:00,27.5,26.0,30.03,SE,135,4.7,-999.0,94,-99.99,,,0.02,Acu-Link.com,2013-01-08 02:13:00,
2013-01-07 21:28:00,27.3,25.8,30.03,SSW,202,0.0,-999.0,94,-99.99,,,0.02,Acu-Link.com,2013-01-08 02:28:00,
2013-01-07 21:43:00,27.1,25.6,30.03,SSW,202,1.6,-999.0,94,-99.99,,,0.02,Acu-Link.com,2013-01-08 02:43:00,
2013-01-07 21:58:00,27.3,25.6,30.03,ESE,112,0.0,-999.0,93,-99.99,,,0.02,Acu-Link.com,2013-01-08 02:58:00,
2013-01-07 22:13:00,27.1,25.6,30.03,ESE,112,2.2,-999.0,94,-99.99,,,0.02,Acu-Link.com,2013-01-08 03:13:00,
2013-01-07 22:29:00,27.3,25.8,30.03,South,180,0.0,-999.0,94,-99.99,,,0.02,Acu-Link.com,2013-01-08 03:29:00,
2013-01-07 22:44:00,27.1,25.9,30.02,WSW,247,0.0,-999.0,95,-99.99,,,0.02,Acu-Link.com,2013-01-08 03:44:00,
2013-01-07 22:59:00,26.6,25.4,30.02,West,270,0.0,-999.0,95,-99.99,,,0.02,Acu-Link.com,2013-01-08 03:59:00,
2013-01-07 23:14:00,26.2,25.5,30.03,SW,225,0.0,-999.0,97,-99.99,,,0.02,Acu-Link.com,2013-01-08 04:14:00,
2013-01-07 23:30:00,25.7,25.0,30.04,ESE,112,0.0,-999.0,97,-99.99,,,0.02,Acu-Link.com,2013-01-08 04:30:00,
2013-01-07 23:45:00,25.2,24.7,30.04,West,270,0.0,-999.0,98,-99.99,,,0.02,Acu-Link.com,2013-01-08 04:45:00,